Wetterdaten: aktuell Sonntag, 29.03.2020 18:00
Datum Zeit Temp. A. Luft Gew. Boden Gew. Boden A. Feuchte A. Luftdruck Regen Wind Richtung Richtung Sonnenschein ET UV Solar Taupunkt Windchill Windben Empfang
29.03.2020 18:00 4.8 C 7.8 C 13.3 C 12.2 C 89 % 1021.4 hPa 0.2 l/m 8.3 km/h (2 Bft) N-NW 331 0 min 0.051 mm 0.0 UV-I 59 W/m 3.1 C 3.1 C 19.3 km/h (3 Bft) 96.58 %
29.03.2020 17:00 4.9 C 7.8 C 13.3 C 12.2 C 88 % 1021.0 hPa 0.2 l/m 8.0 km/h (2 Bft) N 355 0 min 0.051 mm 0.5 UV-I 130 W/m 3.1 C 3.5 C 17.7 km/h (3 Bft) 97.50 %
29.03.2020 16:00 4.0 C 7.2 C 13.3 C 12.2 C 90 % 1021.1 hPa 0.8 l/m 2.7 km/h (1 Bft) O 84 10 min 0.076 mm 0.5 UV-I 92 W/m 2.5 C 4.0 C 11.3 km/h (2 Bft) 100.00 %
29.03.2020 15:00 4.6 C 9.4 C 13.3 C 12.2 C 88 % 1020.8 hPa 0.2 l/m 5.7 km/h (1 Bft) O-NO 63 40 min 0.076 mm 0.8 UV-I 141 W/m 2.8 C 4.6 C 11.3 km/h (2 Bft) 97.22 %
29.03.2020 14:00 5.4 C 9.4 C 13.3 C 12.2 C 86 % 1020.6 hPa 0.2 l/m 4.4 km/h (1 Bft) O 82 30 min 0.076 mm 1.2 UV-I 215 W/m 3.3 C 5.4 C 12.9 km/h (3 Bft) 100.00 %
29.03.2020 13:00 6.6 C 11.7 C 13.3 C 12.2 C 72 % 1020.5 hPa 0.0 l/m 6.9 km/h (2 Bft) NO 44 40 min 0.102 mm 0.8 UV-I 146 W/m 1.9 C 6.2 C 19.3 km/h (3 Bft) 100.00 %
29.03.2020 12:00 7.2 C 13.3 C 13.3 C 12.2 C 66 % 1020.2 hPa 0.0 l/m 3.6 km/h (1 Bft) NO 53 60 min 0.102 mm 1.0 UV-I 171 W/m 1.3 C 7.2 C 8.0 km/h (2 Bft) 96.75 %
29.03.2020 11:00 6.5 C 17.8 C 13.3 C 12.2 C 71 % 1020.0 hPa 0.0 l/m 4.9 km/h (1 Bft) N 10 60 min 0.102 mm 1.4 UV-I 250 W/m 1.6 C 6.5 C 12.9 km/h (3 Bft) 97.44 %
29.03.2020 10:00 5.9 C 10.0 C 13.3 C 12.2 C 72 % 1019.8 hPa 0.0 l/m 4.1 km/h (1 Bft) N-NW 344 50 min 0.051 mm 1.0 UV-I 337 W/m 1.2 C 5.9 C 11.3 km/h (2 Bft) 99.15 %
29.03.2020 09:00 4.4 C 4.4 C 13.3 C 12.2 C 75 % 1019.5 hPa 0.0 l/m 2.7 km/h (1 Bft) N-NO 15 0 min 0.025 mm 0.5 UV-I 116 W/m 0.4 C 4.4 C 8.0 km/h (2 Bft) 96.67 %
29.03.2020 08:00 3.5 C 1.7 C 13.3 C 12.2 C 77 % 1019.3 hPa 0.0 l/m 2.2 km/h (1 Bft) NO 56 0 min 0.025 mm 0.0 UV-I 45 W/m -0.1 C 3.5 C 6.4 km/h (2 Bft) 96.58 %
29.03.2020 07:00 2.8 C 1.7 C 13.3 C 12.2 C 77 % 1019.1 hPa 0.0 l/m 3.6 km/h (1 Bft) N 355 0 min 0.025 mm 0.0 UV-I 0 W/m -0.8 C 2.8 C 9.7 km/h (2 Bft) 97.50 %
29.03.2020 06:00 3.9 C 3.3 C 13.3 C 12.2 C 75 % 1018.7 hPa 0.0 l/m 0.0 km/h (0 Bft) N 355 0 min 0.025 mm 0.0 UV-I 0 W/m -0.1 C 3.9 C 1.6 km/h (1 Bft) 99.17 %
29.03.2020 05:00 5.1 C 3.9 C 13.3 C 12.2 C 75 % 1018.6 hPa 0.0 l/m 1.9 km/h (1 Bft) N 355 0 min 0.025 mm 0.0 UV-I 0 W/m 1.0 C 5.1 C 9.7 km/h (2 Bft) 97.44 %
29.03.2020 04:00 4.2 C 3.3 C 13.3 C 12.2 C 78 % 1018.7 hPa 0.0 l/m 0.8 km/h (0 Bft) N 360 0 min 0.025 mm 0.0 UV-I 0 W/m 0.7 C 4.2 C 3.2 km/h (1 Bft) 98.29 %
29.03.2020 03:00 4.6 C 3.9 C 13.3 C 12.2 C 74 % 1018.9 hPa 0.0 l/m 1.9 km/h (1 Bft) N 5 0 min 0.026 mm 0.0 UV-I 0 W/m 0.4 C 4.6 C 6.4 km/h (2 Bft) 96.58 %
29.03.2020 01:00 6.6 C 5.0 C 13.3 C 12.2 C 67 % 1019.1 hPa 0.0 l/m 0.1 km/h (0 Bft) NO 52 0 min 0.025 mm 0.0 UV-I 0 W/m 0.9 C 6.6 C 1.6 km/h (1 Bft) 98.29 %
29.03.2020 00:00 7.2 C 5.6 C 13.3 C 12.2 C 67 % 1019.0 hPa 0.0 l/m 0.4 km/h (0 Bft) NO 38 0 min 0.026 mm 0.0 UV-I 0 W/m 1.5 C 7.2 C 3.2 km/h (1 Bft) 99.15 %
28.03.2020 23:00 8.4 C 6.1 C 13.3 C 12.2 C 65 % 1018.7 hPa 0.0 l/m 1.3 km/h (1 Bft) O 83 0 min 0.025 mm 0.0 UV-I 0 W/m 2.2 C 8.4 C 3.2 km/h (1 Bft) 99.17 %
28.03.2020 22:00 8.6 C 6.7 C 13.3 C 12.2 C 63 % 1018.3 hPa 0.0 l/m 0.0 km/h (0 Bft) N 360 0 min 0.025 mm 0.0 UV-I 0 W/m 2.0 C 8.6 C 0.0 km/h (0 Bft) 100.00 %
28.03.2020 21:00 8.6 C 8.9 C 13.3 C 12.2 C 66 % 1018.0 hPa 0.0 l/m 0.0 km/h (0 Bft) N 350 0 min 0.001 mm 0.0 UV-I 0 W/m 2.6 C 8.6 C 0.0 km/h (0 Bft) 99.15 %
28.03.2020 20:00 10.7 C 12.2 C 13.3 C 12.2 C 58 % 1017.7 hPa 0.0 l/m 0.0 km/h (0 Bft) N 350 0 min 0.025 mm 0.0 UV-I 0 W/m 2.8 C 10.7 C 0.0 km/h (0 Bft) 97.44 %
28.03.2020 19:00 13.0 C 17.8 C 13.3 C 12.2 C 49 % 1016.9 hPa 0.0 l/m 2.3 km/h (1 Bft) N-NW 347 0 min 0.025 mm 0.0 UV-I 0 W/m 2.5 C 13.0 C 6.4 km/h (2 Bft) 99.22 %
_ Min-Zeit 06:55 07:00 19:00 19:00 19:00 19:00 - 19:50 - - - - - - 07:00 17:25 19:55 04:30
Minimum _ 2.8 C 1.7 C 13.3 C 12.2 C 49 % 1016.9 hPa - 0.0 km/h (0 Bft) - - - - - - -0.8 C 1.1 C 0.0 km/h (0 Bft) 95.73 %
_ Max-Zeit 19:00 19:00 19:00 19:00 17:15 18:00 13:45 17:25 - - 09:15 11:05 10:35 10:25 17:15 19:00 17:05 19:05
Maximum _ 13.2 C 17.8 C 13.3 C 12.2 C 92 % 1021.4 hPa 0.2 l/m 11.4 km/h
N-NW (2 Bft)
- - 5 min 0.152 mm 1.5 UV-I 457 W/m 3.8 C 13.0 C 22.5 km/h
N-NW (4 Bft)
100.00 %
Durchschnitt _ 6.5 C 8.2 C 13.3 C 12.2 C 72 % 1019.2 hPa #1.6 l/m 2.7 km/h (1 Bft) N - #4:50 h #0.889 mm 0.9 UV-I 153 W/m 1.6 C 6.3 C 7.7 km/h (2 Bft) 98.34 %